Time;durP1;ratioP1;P1;durP2;ratioP2;P2;SDS_P1;SDS_P2;PMS_P1;PMS_P2;Temp;Humidity;BMP_temperature;BMP_pressure;BME280_temperature;BME280_humidity;BME280_pressure;Samples;Min_cycle;Max_cycle;Signal;HPM_P1;HPM_P2
2022/05/06 00:02:19;;;;;;;12.95;10.48;;;;;;;8.13;77.51;94062.97;5047285;28;20025;-55
2022/05/06 00:04:44;;;;;;;9.00;8.10;;;;;;;8.08;77.34;94059.03;5047452;28;20021;-56
2022/05/06 00:07:13;;;;;;;8.82;7.93;;;;;;;8.09;77.62;94049.53;5045652;28;20480;-55
2022/05/06 00:09:39;;;;;;;;;;;;;;;7.99;77.34;94045.63;5048061;28;20031;-55
2022/05/06 00:12:06;;;;;;;8.13;7.32;;;;;;;7.83;76.97;94027.34;5046327;28;19951;-54
2022/05/06 00:14:31;;;;;;;9.00;7.90;;;;;;;7.91;77.67;94050.22;5046848;28;20045;-58
2022/05/06 00:16:57;;;;;;;7.63;6.75;;;;;;;7.82;78.90;94049.84;5038491;28;20029;-57
2022/05/06 00:19:22;;;;;;;8.73;7.03;;;;;;;7.74;78.86;94043.41;5031230;28;20032;-57
2022/05/06 00:21:48;;;;;;;10.65;8.10;;;;;;;7.89;78.21;94049.25;5046964;28;20481;-57
2022/05/06 00:24:13;;;;;;;11.73;8.30;;;;;;;8.00;77.89;94057.38;5040019;28;20116;-57
2022/05/06 00:26:39;;;;;;;11.68;8.73;;;;;;;7.96;78.26;94054.94;5028155;28;20025;-58
2022/05/06 00:29:04;;;;;;;9.93;8.20;;;;;;;7.92;78.52;94061.97;5035291;28;20033;-62
2022/05/06 00:31:29;;;;;;;9.65;8.30;;;;;;;7.71;79.76;94049.97;5046873;28;20033;-62
2022/05/06 00:33:55;;;;;;;9.68;7.82;;;;;;;7.78;79.33;94071.34;5046834;28;20028;-62
2022/05/06 00:36:21;;;;;;;8.80;7.43;;;;;;;7.74;79.50;94068.16;5046818;28;20025;-62
2022/05/06 00:38:46;;;;;;;11.23;8.90;;;;;;;7.66;79.06;94065.25;5046717;28;20033;-62
2022/05/06 00:41:11;;;;;;;11.25;9.18;;;;;;;7.72;78.03;94065.19;5047108;28;20025;-62
2022/05/06 00:43:40;;;;;;;9.82;8.35;;;;;;;7.71;78.18;94069.94;5046479;28;20069;-62
2022/05/06 00:46:13;;;;;;;9.55;8.13;;;;;;;7.73;78.14;94078.44;5047389;28;20021;-62
2022/05/06 00:48:40;;;;;;;8.85;7.25;;;;;;;7.75;78.37;94070.41;5050516;28;20077;-62
2022/05/06 00:51:06;;;;;;;11.35;9.02;;;;;;;7.83;78.87;94074.06;5049976;28;20081;-62
2022/05/06 00:53:35;;;;;;;10.52;7.88;;;;;;;7.88;79.15;94067.03;5050132;28;20512;-63
2022/05/06 00:56:00;;;;;;;10.85;7.97;;;;;;;7.90;79.54;94064.50;5050438;28;20596;-62
2022/05/06 00:58:29;;;;;;;11.60;8.90;;;;;;;7.90;78.50;94070.00;5049950;28;20112;-62
2022/05/06 01:00:54;;;;;;;10.60;9.00;;;;;;;7.75;80.44;94072.41;5050298;28;20029;-62
2022/05/06 01:03:20;;;;;;;11.98;8.60;;;;;;;7.75;80.83;94064.91;5048577;28;20113;-62
2022/05/06 01:05:45;;;;;;;13.23;8.68;;;;;;;7.75;81.28;94061.41;5049791;28;20021;-63
2022/05/06 01:08:11;;;;;;;12.23;8.75;;;;;;;7.64;81.82;94056.78;5049778;28;20028;-62
2022/05/06 01:10:38;;;;;;;13.15;8.50;;;;;;;7.66;81.75;94059.75;5050106;28;20025;-55
2022/05/06 01:13:04;;;;;;;10.60;7.65;;;;;;;7.74;81.77;94055.16;5038165;28;20048;-58
2022/05/06 01:15:30;;;;;;;13.10;8.40;;;;;;;7.85;80.62;94060.56;5029711;28;20566;-59
2022/05/06 01:17:56;;;;;;;8.93;7.70;;;;;;;7.82;80.21;94058.81;5030107;28;20036;-59
2022/05/06 01:20:23;;;;;;;9.70;7.85;;;;;;;7.75;80.06;94066.91;5030050;28;20026;-58
2022/05/06 01:22:58;;;;;;;16.25;8.90;;;;;;;7.87;79.33;94063.53;5029769;28;20569;-59
2022/05/06 01:25:24;;;;;;;12.02;8.38;;;;;;;7.80;78.72;94064.09;5029691;28;20114;-48
2022/05/06 01:28:02;;;;;;;12.63;9.43;;;;;;;7.60;79.55;94062.53;5038587;28;20108;-49
2022/05/06 01:30:34;;;;;;;14.95;10.15;;;;;;;7.66;79.10;94057.00;5049913;28;20049;-46
2022/05/06 01:33:02;;;;;;;11.65;9.25;;;;;;;7.73;78.86;94063.94;5048370;28;20532;-47
2022/05/06 01:35:29;;;;;;;13.25;9.43;;;;;;;7.54;79.84;94064.59;5049519;28;20032;-46
2022/05/06 01:37:56;;;;;;;13.57;10.13;;;;;;;7.49;80.66;94059.19;5049634;28;20411;-48
2022/05/06 01:40:24;;;;;;;13.27;9.65;;;;;;;7.65;79.58;94067.25;5047160;28;20013;-46
2022/05/06 01:42:52;;;;;;;10.75;8.75;;;;;;;7.55;80.48;94071.59;5049697;28;20026;-48
2022/05/06 01:45:18;;;;;;;11.48;9.25;;;;;;;7.54;80.39;94066.59;5048041;28;20028;-49
2022/05/06 01:47:44;;;;;;;14.40;8.98;;;;;;;7.63;80.08;94069.78;5049500;28;20028;-48
2022/05/06 01:50:12;;;;;;;15.25;8.93;;;;;;;7.74;79.53;94068.16;5048032;28;20025;-48
2022/05/06 01:52:39;;;;;;;10.73;8.45;;;;;;;7.62;80.18;94064.78;5049400;28;20025;-47
2022/05/06 01:55:08;;;;;;;10.88;7.93;;;;;;;7.63;80.46;94055.28;5049125;28;20021;-50
2022/05/06 01:57:34;;;;;;;9.80;8.55;;;;;;;7.58;80.68;94061.56;5049046;28;20021;-48
2022/05/06 01:59:59;;;;;;;11.32;8.18;;;;;;;7.53;80.76;94060.38;5049445;28;20128;-49
2022/05/06 02:02:24;;;;;;;11.77;8.10;;;;;;;7.43;80.88;94067.44;5046380;28;20534;-46
2022/05/06 02:07:34;;;;;;;11.40;9.15;;;;;;;7.59;79.79;94066.56;5049251;28;20563;-47
2022/05/06 02:09:59;;;;;;;17.88;10.80;;;;;;;7.59;79.94;94074.06;5048090;28;20024;-50
2022/05/06 02:12:25;;;;;;;11.98;9.70;;;;;;;7.57;79.84;94069.09;5042603;28;20501;-59
2022/05/06 02:14:51;;;;;;;11.85;9.93;;;;;;;7.64;79.02;94056.78;5028303;28;20046;-58
2022/05/06 02:17:16;;;;;;;14.50;8.85;;;;;;;7.58;79.63;94065.06;5028205;28;20025;-58
2022/05/06 02:19:42;;;;;;;9.20;8.23;;;;;;;7.62;79.56;94073.03;5028882;28;20543;-58
2022/05/06 02:22:08;;;;;;;15.55;9.50;;;;;;;7.62;79.38;94084.03;5029141;28;20022;-58
2022/05/06 02:24:33;;;;;;;17.65;11.13;;;;;;;7.58;79.24;94081.56;5029091;28;20025;-58
2022/05/06 02:26:59;;;;;;;17.80;13.93;;;;;;;7.72;77.80;94081.69;5029118;28;20398;-58
2022/05/06 02:29:25;;;;;;;17.52;12.20;;;;;;;7.62;78.04;94078.53;5029033;28;20021;-58
2022/05/06 02:34:34;;;;;;;14.98;11.80;;;;;;;7.64;78.18;94076.75;5048740;28;20104;-58
2022/05/06 02:37:00;;;;;;;14.90;11.15;;;;;;;7.55;78.73;94070.84;5048886;28;20413;-58
2022/05/06 02:39:26;;;;;;;15.25;10.93;;;;;;;7.56;79.31;94075.81;5048648;28;20528;-58
2022/05/06 02:41:51;;;;;;;13.93;10.10;;;;;;;7.39;80.25;94067.00;5048732;28;20433;-58
2022/05/06 02:44:17;;;;;;;13.98;11.05;;;;;;;7.45;80.83;94067.69;5048580;28;20032;-58
2022/05/06 02:46:43;;;;;;;11.77;9.70;;;;;;;7.44;80.83;94068.94;5048332;28;20557;-58
2022/05/06 02:49:08;;;;;;;17.98;10.77;;;;;;;7.64;79.72;94071.25;5048673;28;20024;-58
2022/05/06 02:51:34;;;;;;;17.38;11.02;;;;;;;7.64;79.00;94065.75;5046919;28;20052;-58
2022/05/06 02:53:59;;;;;;;11.60;9.27;;;;;;;7.64;79.61;94065.75;5048570;28;20021;-54
2022/05/06 02:56:25;;;;;;;15.50;10.48;;;;;;;7.57;79.66;94057.34;5048431;28;20021;-54
2022/05/06 02:58:51;;;;;;;10.75;8.85;;;;;;;7.54;79.02;94056.38;5048209;28;20077;-54
2022/05/06 03:01:16;;;;;;;14.45;9.88;;;;;;;7.50;78.83;94049.66;5048391;28;20021;-53
2022/05/06 03:03:42;;;;;;;18.98;11.98;;;;;;;7.45;78.69;94053.22;5048277;28;20028;-55
2022/05/06 03:06:07;;;;;;;16.40;12.10;;;;;;;7.65;78.51;94075.50;5047993;28;20075;-55
2022/05/06 03:08:32;;;;;;;17.67;12.90;;;;;;;7.64;77.58;94076.00;5046312;28;20033;-55
2022/05/06 03:11:01;;;;;;;16.02;11.50;;;;;;;7.58;78.28;94075.31;5047278;28;20021;-51
2022/05/06 03:13:26;;;;;;;17.55;11.82;;;;;;;7.38;78.75;94071.00;5032762;28;20053;-50
2022/05/06 03:15:52;;;;;;;15.75;11.15;;;;;;;7.59;78.70;94076.81;5028037;28;20018;-53
2022/05/06 03:18:17;;;;;;;14.80;11.02;;;;;;;7.53;79.61;94079.63;5033044;28;20021;-51
2022/05/06 03:20:44;;;;;;;17.05;11.32;;;;;;;7.51;79.93;94076.59;5047768;28;20036;-50
2022/05/06 03:23:09;;;;;;;14.13;10.80;;;;;;;7.42;80.12;94073.47;5046658;28;20024;-53
2022/05/06 03:25:35;;;;;;;12.43;9.57;;;;;;;7.46;80.05;94082.91;5046234;28;20021;-51
2022/05/06 03:28:07;;;;;;;14.13;9.25;;;;;;;7.43;79.69;94075.69;5047714;28;20028;-50
2022/05/06 03:30:39;;;;;;;12.73;9.00;;;;;;;7.60;79.01;94081.06;5048083;28;20051;-50
2022/05/06 03:33:04;;;;;;;10.00;8.00;;;;;;;7.74;78.65;94076.41;5047651;28;20025;-50
2022/05/06 03:35:34;;;;;;;12.63;9.32;;;;;;;7.79;78.95;94072.88;5047638;28;20069;-53
2022/05/06 03:37:59;;;;;;;10.82;8.85;;;;;;;7.77;79.22;94078.13;5047585;28;20069;-50
2022/05/06 03:40:24;;;;;;;11.32;8.63;;;;;;;7.65;79.58;94077.50;5047458;28;20029;-50
2022/05/06 03:42:50;;;;;;;83.40;48.90;;;;;;;7.67;79.25;94085.25;5047573;28;20037;-51
2022/05/06 03:45:16;;;;;;;57.90;32.97;;;;;;;7.70;78.68;94089.69;5031480;28;20040;-51
2022/05/06 03:47:41;;;;;;;28.48;19.88;;;;;;;7.77;78.68;94089.13;5040527;28;20029;-53
2022/05/06 03:52:51;;;;;;;17.42;11.48;;;;;;;7.71;80.49;94082.94;5029337;28;20031;-58
2022/05/06 03:55:18;;;;;;;20.52;14.30;;;;;;;7.61;80.34;94085.28;5029504;28;20486;-57
2022/05/06 03:57:43;;;;;;;35.88;25.05;;;;;;;7.66;80.21;94092.72;5028757;28;20239;-57
2022/05/06 04:00:10;;;;;;;33.47;23.02;;;;;;;7.69;80.09;94094.44;5040621;28;20029;-57
2022/05/06 04:02:39;;;;;;;38.03;27.98;;;;;;;7.73;79.48;94099.66;5029424;28;20040;-57
2022/05/06 04:05:05;;;;;;;32.40;21.67;;;;;;;7.82;78.28;94102.09;5027504;28;20060;-57
2022/05/06 04:07:30;;;;;;;37.60;23.60;;;;;;;7.87;78.43;94106.75;5027524;28;20417;-57
2022/05/06 04:09:56;;;;;;;52.25;28.90;;;;;;;7.88;78.95;94102.75;5027419;28;20040;-57
2022/05/06 04:12:23;;;;;;;63.88;37.00;;;;;;;7.86;78.97;94105.28;5034535;28;20018;-47
2022/05/06 04:14:49;;;;;;;55.33;33.92;;;;;;;7.82;80.14;94108.31;5037997;28;20041;-50
2022/05/06 04:17:14;;;;;;;30.63;21.98;;;;;;;7.93;79.36;94105.44;5047033;28;20422;-48
2022/05/06 04:25:15;;;;;;;48.72;29.55;;;;;;;8.05;78.97;94100.59;5050542;28;20036;-48
2022/05/06 04:27:43;;;;;;;51.30;30.63;;;;;;;8.21;77.67;94110.63;5050824;28;20486;-49
2022/05/06 04:30:10;;;;;;;51.17;30.80;;;;;;;8.32;78.11;94116.03;5049218;28;20076;-48
2022/05/06 04:32:36;;;;;;;55.10;30.63;;;;;;;8.39;78.06;94116.22;5050631;28;20417;-46
2022/05/06 04:35:05;;;;;;;51.38;28.70;;;;;;;8.40;77.38;94116.97;5049606;28;20025;-47
2022/05/06 04:37:32;;;;;;;50.35;29.00;;;;;;;8.46;76.87;94120.41;5050432;28;20667;-48
2022/05/06 04:39:58;;;;;;;50.28;31.05;;;;;;;8.53;76.82;94119.81;5050250;28;20078;-48
2022/05/06 04:42:24;;;;;;;47.60;28.40;;;;;;;8.62;77.27;94122.19;5050304;28;20518;-55
2022/05/06 04:44:49;;;;;;;46.03;28.25;;;;;;;8.56;77.79;94120.75;5049352;28;20029;-54
2022/05/06 04:47:15;;;;;;;44.88;27.25;;;;;;;8.66;77.93;94111.66;5050592;28;20201;-55
2022/05/06 04:49:40;;;;;;;39.78;25.05;;;;;;;8.74;78.19;94120.78;5050090;28;20057;-59
2022/05/06 04:52:06;;;;;;;39.20;26.90;;;;;;;8.76;78.46;94098.97;5050345;28;20024;-59
2022/05/06 04:54:31;;;;;;;40.67;24.90;;;;;;;8.88;79.24;94116.84;5050502;28;20021;-59
2022/05/06 04:56:57;;;;;;;43.88;28.20;;;;;;;9.07;79.49;94122.34;5050254;28;20021;-51
2022/05/06 04:59:22;;;;;;;41.42;30.17;;;;;;;9.22;78.51;94122.63;5049542;28;20021;-52
2022/05/06 05:01:48;;;;;;;36.60;27.42;;;;;;;9.36;77.60;94120.66;5038093;28;20029;-50
2022/05/06 05:04:14;;;;;;;42.08;24.70;;;;;;;9.34;76.92;94092.88;5030276;28;20104;-51
2022/05/06 05:06:40;;;;;;;27.15;19.80;;;;;;;9.69;76.71;94114.59;5030308;28;20054;-50
2022/05/06 05:09:05;;;;;;;25.08;19.52;;;;;;;9.78;77.20;94114.19;5029936;28;20029;-52
2022/05/06 05:11:32;;;;;;;25.70;18.48;;;;;;;9.81;77.18;94111.13;5030218;28;20033;-50
2022/05/06 05:14:00;;;;;;;32.88;21.02;;;;;;;10.01;77.04;94107.00;5029333;28;20038;-50
2022/05/06 05:16:26;;;;;;;27.70;21.02;;;;;;;9.93;76.49;94084.09;5029790;28;20109;-57
2022/05/06 05:18:51;;;;;;;30.35;21.90;;;;;;;10.40;76.05;94125.63;5029805;28;20108;-57
2022/05/06 05:21:18;;;;;;;32.75;21.67;;;;;;;10.56;75.25;94119.03;5029685;28;20033;-57
2022/05/06 05:23:45;;;;;;;39.33;25.20;;;;;;;10.66;73.81;94123.59;5029993;28;20034;-57
2022/05/06 05:26:10;;;;;;;34.28;26.58;;;;;;;10.74;73.17;94134.00;5030000;28;20025;-57
2022/05/06 05:28:36;;;;;;;36.67;25.48;;;;;;;10.95;71.65;94129.28;5029620;28;20021;-57
2022/05/06 05:31:01;;;;;;;37.75;25.58;;;;;;;11.06;72.48;94126.28;5029087;28;20053;-58
2022/05/06 05:33:27;;;;;;;31.13;22.25;;;;;;;11.30;72.10;94126.72;5044564;28;20097;-57
2022/05/06 05:35:52;;;;;;;29.75;20.70;;;;;;;11.47;71.59;94133.91;5049522;28;20023;-57
2022/05/06 05:38:17;;;;;;;31.65;20.50;;;;;;;11.56;71.12;94125.91;5049314;28;20024;-57
2022/05/06 05:40:43;;;;;;;33.08;23.92;;;;;;;11.70;71.35;94110.75;5048920;28;20033;-57
2022/05/06 05:48:19;;;;;;;35.40;22.92;;;;;;;11.96;70.24;94132.72;5049632;28;20028;-57
2022/05/06 05:48:38;;;;;;;34.90;24.50;;;;;;;12.23;70.62;94122.22;5037995;28;20422;-57
2022/05/06 05:51:03;;;;;;;34.85;23.17;;;;;;;12.41;70.07;94124.00;5044882;28;20025;-59
2022/05/06 05:53:29;;;;;;;26.10;17.15;;;;;;;12.47;70.52;94130.16;5047727;28;20025;-61
2022/05/06 05:55:54;;;;;;;14.52;12.02;;;;;;;12.55;70.48;94124.63;5044267;28;20025;-60
2022/05/06 05:58:20;;;;;;;31.55;19.58;;;;;;;12.67;70.71;94125.81;5034044;28;20051;-60
2022/05/06 06:00:45;;;;;;;30.77;18.50;;;;;;;12.84;69.79;94121.28;5033122;28;20025;-60
2022/05/06 06:03:10;;;;;;;33.78;21.15;;;;;;;12.94;68.78;94118.75;5048897;28;20017;-61
2022/05/06 06:05:37;;;;;;;27.58;16.77;;;;;;;13.13;68.16;94127.53;5048550;28;20021;-57
2022/05/06 06:08:03;;;;;;;27.40;16.98;;;;;;;13.26;67.16;94127.38;5040382;27;20416;-57
2022/05/06 06:10:28;;;;;;;22.65;16.77;;;;;;;13.48;66.04;94120.41;5046970;28;20023;-58
2022/05/06 06:12:56;;;;;;;30.15;18.45;;;;;;;13.61;66.53;94126.56;5047187;28;20017;-58
2022/05/06 06:15:21;;;;;;;25.13;18.15;;;;;;;13.65;65.19;94128.97;5046866;28;20045;-58
2022/05/06 06:17:47;;;;;;;22.48;14.18;;;;;;;13.66;65.19;94136.00;5048760;28;20060;-58
2022/05/06 06:20:12;;;;;;;17.95;13.55;;;;;;;13.66;66.62;94136.00;5049029;28;20036;-57
2022/05/06 06:22:38;;;;;;;20.23;11.25;;;;;;;13.63;65.92;94137.84;5048542;28;20463;-58
2022/05/06 06:25:07;;;;;;;11.40;9.68;;;;;;;13.81;64.76;94136.03;5047583;28;20025;-58
2022/05/06 06:27:34;;;;;;;21.08;8.88;;;;;;;13.90;64.75;94135.47;5046152;28;20044;-58
2022/05/06 06:29:59;;;;;;;12.35;7.70;;;;;;;14.09;65.84;94132.34;5047213;28;20029;-58
2022/05/06 06:32:25;;;;;;;9.13;7.53;;;;;;;14.20;64.72;94126.41;5047574;28;20024;-58
2022/05/06 06:34:52;;;;;;;10.18;7.40;;;;;;;14.15;64.88;94130.09;5046188;28;20520;-58
2022/05/06 06:37:19;;;;;;;10.75;7.15;;;;;;;13.86;64.22;94131.59;5047439;28;20025;-58
2022/05/06 06:39:45;;;;;;;8.73;6.90;;;;;;;13.70;65.08;94116.94;5047732;28;20108;-58
2022/05/06 06:42:10;;;;;;;13.65;7.78;;;;;;;13.94;66.67;94115.66;5048394;28;20028;-58
2022/05/06 06:44:36;;;;;;;7.32;6.57;;;;;;;14.25;66.10;94117.88;5047073;28;20031;-58
2022/05/06 06:47:07;;;;;;;9.57;7.07;;;;;;;14.47;65.37;94121.94;5048601;28;20059;-58
2022/05/06 06:49:33;;;;;;;9.38;6.63;;;;;;;14.73;64.80;94115.22;5048682;28;20029;-58
2022/05/06 06:51:58;;;;;;;9.68;8.05;;;;;;;15.01;64.69;94106.59;5048544;28;20418;-58
2022/05/06 06:54:24;;;;;;;11.90;7.20;;;;;;;15.15;63.61;94102.31;5046108;28;20032;-59
2022/05/06 06:56:49;;;;;;;8.35;7.10;;;;;;;15.43;62.64;94107.56;5048351;28;20089;-58
2022/05/06 06:59:15;;;;;;;8.02;6.35;;;;;;;15.60;63.48;94104.13;5045213;28;20044;-58
2022/05/06 07:01:40;;;;;;;9.90;6.60;;;;;;;15.97;59.99;94108.69;5048288;28;20078;-58
2022/05/06 07:04:06;;;;;;;5.97;5.45;;;;;;;16.33;59.74;94120.09;5048269;28;20552;-58
2022/05/06 07:11:59;;;;;;;9.85;6.28;;;;;;;18.27;55.74;94107.69;5048029;28;20146;-57
2022/05/06 07:14:29;;;;;;;14.40;6.60;;;;;;;19.24;52.74;94099.59;5047785;28;20119;-58
2022/05/06 07:16:54;;;;;;;11.35;6.70;;;;;;;19.86;51.26;94097.03;5044971;28;20116;-57
2022/05/06 07:19:21;;;;;;;8.23;6.43;;;;;;;19.93;47.53;94096.84;5045498;28;20108;-57
2022/05/06 07:21:49;;;;;;;9.15;5.78;;;;;;;19.93;48.49;94096.84;5045342;28;20510;-58
2022/05/06 07:24:15;;;;;;;12.50;7.00;;;;;;;20.44;49.42;94098.28;5045395;28;20025;-58
2022/05/06 07:26:41;;;;;;;7.88;6.57;;;;;;;21.36;45.81;94095.28;5045728;28;20036;-58
2022/05/06 07:29:06;;;;;;;7.65;6.80;;;;;;;22.04;43.75;94098.94;5044317;28;20029;-58
2022/05/06 07:31:32;;;;;;;15.23;6.38;;;;;;;22.15;43.82;94092.59;5044752;28;20036;-58
2022/05/06 07:33:57;;;;;;;8.57;6.43;;;;;;;22.25;43.57;94087.56;5045768;28;20035;-58
2022/05/06 07:36:26;;;;;;;9.38;6.75;;;;;;;22.28;43.60;94102.50;5045953;28;20501;-58
2022/05/06 07:38:51;;;;;;;;;;;;;;;22.00;42.66;94095.88;5046155;28;20028;-58
2022/05/06 07:41:17;;;;;;;7.78;6.93;;;;;;;21.59;44.83;94103.06;5045149;28;20397;-58
2022/05/06 07:43:42;;;;;;;7.43;5.90;;;;;;;21.00;42.33;94095.72;5043834;28;20021;-58
2022/05/06 07:46:11;;;;;;;11.43;7.30;;;;;;;21.02;44.31;94096.59;5045285;28;20025;-58
2022/05/06 07:48:37;;;;;;;13.90;8.63;;;;;;;20.74;46.12;94105.19;5045003;28;20054;-58
2022/05/06 07:51:04;;;;;;;10.25;7.13;;;;;;;20.33;44.18;94066.03;5044884;28;20060;-57
2022/05/06 07:53:29;;;;;;;6.35;5.60;;;;;;;20.26;41.89;94105.44;5045342;28;20047;-57
2022/05/06 07:55:55;;;;;;;7.47;6.10;;;;;;;19.71;43.98;94098.09;5045055;28;20021;-57
2022/05/06 07:58:21;;;;;;;7.22;6.50;;;;;;;19.83;45.55;94095.41;5045076;28;20498;-57
2022/05/06 08:00:46;;;;;;;6.85;5.72;;;;;;;19.91;44.61;94099.50;5045126;28;20037;-57
2022/05/06 08:05:59;;;;;;;5.55;4.82;;;;;;;19.60;45.78;94096.63;5036329;28;20684;-57
2022/05/06 08:08:26;;;;;;;6.05;5.07;;;;;;;19.41;46.07;94105.06;5023701;28;20030;-53
2022/05/06 08:10:53;;;;;;;5.63;5.13;;;;;;;19.46;44.50;94106.84;5024774;28;20025;-54
2022/05/06 08:13:19;;;;;;;7.30;5.35;;;;;;;19.27;44.76;94095.66;5024249;28;20021;-57
2022/05/06 08:15:47;;;;;;;5.47;4.85;;;;;;;19.48;45.26;94106.25;5024875;28;20045;-54
2022/05/06 08:18:12;;;;;;;5.90;5.30;;;;;;;19.42;46.21;94089.75;5025076;28;20037;-52
2022/05/06 08:20:39;;;;;;;6.28;5.68;;;;;;;19.81;44.80;94107.22;5025167;28;20021;-57
2022/05/06 08:23:06;;;;;;;6.88;5.72;;;;;;;19.41;44.86;94079.13;5042810;28;20025;-57
2022/05/06 08:25:31;;;;;;;6.75;5.55;;;;;;;19.64;44.92;94102.53;5033807;28;20078;-57
2022/05/06 08:27:57;;;;;;;6.32;5.72;;;;;;;19.60;44.45;94104.28;5034258;28;20029;-56
2022/05/06 08:30:22;;;;;;;7.57;6.43;;;;;;;20.11;44.92;94091.75;5034762;28;20093;-56
2022/05/06 08:32:48;;;;;;;7.32;5.63;;;;;;;20.05;44.82;94096.97;5035407;28;20108;-56
2022/05/06 08:35:14;;;;;;;5.82;5.28;;;;;;;20.29;43.77;94104.28;5024582;28;20602;-57
2022/05/06 08:37:43;;;;;;;5.30;4.80;;;;;;;20.20;43.95;94097.38;5029949;28;20056;-57
2022/05/06 08:40:18;;;;;;;8.50;4.97;;;;;;;20.82;42.70;94108.53;5044219;28;20025;-55
2022/05/06 08:42:44;;;;;;;5.68;5.10;;;;;;;20.93;40.60;94103.00;5044737;28;20033;-59
2022/05/06 08:50:53;;;;;;;5.68;5.07;;;;;;;20.23;41.78;94095.41;5027752;28;20110;-57
2022/05/06 08:53:27;;;;;;;9.38;4.60;;;;;;;20.58;40.36;94096.44;5043677;28;20048;-56
2022/05/06 08:55:57;;;;;;;7.22;4.80;;;;;;;20.66;41.63;94101.84;5044373;28;20021;-57
2022/05/06 08:58:24;;;;;;;6.10;4.03;;;;;;;20.99;40.03;94105.47;5044177;28;20060;-57
2022/05/06 09:00:57;;;;;;;5.50;4.93;;;;;;;20.63;40.27;94105.84;5044017;28;20506;-56
2022/05/06 09:03:22;;;;;;;4.32;3.85;;;;;;;20.66;39.50;94108.19;5042697;28;20029;-56
2022/05/06 09:05:51;;;;;;;5.90;5.22;;;;;;;20.52;39.12;94110.06;5043989;28;20029;-56
2022/05/06 09:08:17;;;;;;;4.78;4.28;;;;;;;20.64;39.19;94110.84;5040221;28;20506;-56
2022/05/06 09:10:42;;;;;;;4.25;3.85;;;;;;;21.10;39.04;94110.44;5042634;28;20029;-56
2022/05/06 09:13:08;;;;;;;6.60;4.55;;;;;;;21.16;38.98;94101.69;5033572;28;20479;-55
2022/05/06 09:18:23;;;;;;;5.53;4.05;;;;;;;22.05;36.91;94102.44;5027925;28;20110;-57
2022/05/06 09:20:52;;;;;;;3.92;3.63;;;;;;;21.63;36.60;94108.94;5027768;28;20544;-57
2022/05/06 09:23:18;;;;;;;;;;;;;;;21.50;33.74;94107.44;5027195;28;20025;-57
2022/05/06 09:25:46;;;;;;;5.50;4.20;;;;;;;21.21;35.40;94101.34;5027496;28;19940;-53
2022/05/06 09:28:30;;;;;;;4.15;3.17;;;;;;;21.37;34.92;94093.22;5027162;28;20067;-57
2022/05/06 09:31:00;;;;;;;4.82;3.00;;;;;;;22.10;32.46;94096.47;5027535;28;20035;-57
2022/05/06 09:33:26;;;;;;;5.47;3.33;;;;;;;22.52;29.67;94099.06;5027274;28;20566;-56
2022/05/06 09:35:52;;;;;;;2.83;2.63;;;;;;;21.91;30.42;94082.66;5027482;28;20056;-56
2022/05/06 09:38:17;;;;;;;4.32;2.90;;;;;;;21.52;31.89;94089.97;5027380;28;20060;-55
2022/05/06 09:40:43;;;;;;;3.83;2.35;;;;;;;21.73;31.29;94095.53;5027647;28;20098;-56
2022/05/06 09:43:16;;;;;;;4.95;3.05;;;;;;;21.64;30.15;94093.53;5039075;28;20032;-56
2022/05/06 09:45:43;;;;;;;2.75;2.20;;;;;;;21.83;29.40;94079.31;5046075;28;20417;-57
2022/05/06 09:48:13;;;;;;;2.47;2.28;;;;;;;21.91;27.81;94085.47;5047125;28;20033;-56
2022/05/06 09:50:40;;;;;;;6.70;2.60;;;;;;;21.77;29.09;94084.53;5046722;28;20021;-56
2022/05/06 09:53:08;;;;;;;3.25;2.25;;;;;;;21.48;28.30;94087.66;5046693;28;20089;-56
2022/05/06 09:55:38;;;;;;;2.60;2.30;;;;;;;21.66;30.33;94085.25;5046761;28;20033;-55
2022/05/06 09:58:04;;;;;;;3.03;2.42;;;;;;;22.15;27.21;94086.97;5047084;28;20089;-55
2022/05/06 10:00:32;;;;;;;2.30;1.70;;;;;;;22.65;27.27;94094.94;5044966;28;20494;-57
2022/05/06 10:02:58;;;;;;;3.88;2.70;;;;;;;23.04;28.22;94086.66;5046158;28;20033;-57
2022/05/06 10:05:24;;;;;;;2.65;2.33;;;;;;;22.93;28.60;94078.97;5045519;28;20077;-57
2022/05/06 10:07:52;;;;;;;5.05;2.30;;;;;;;22.80;28.72;94082.41;5040714;28;20103;-57
2022/05/06 10:10:20;;;;;;;3.03;2.05;;;;;;;23.07;27.18;94074.13;5031496;28;20104;-57
2022/05/06 10:12:54;;;;;;;3.67;2.75;;;;;;;23.30;27.08;94060.00;5027485;28;20060;-57
2022/05/06 10:15:22;;;;;;;3.75;2.83;;;;;;;23.12;29.71;94058.94;5031223;28;20438;-56
2022/05/06 10:17:55;;;;;;;4.97;2.70;;;;;;;23.39;27.89;94064.03;5034200;28;20626;-57
2022/05/06 10:20:47;;;;;;;12.20;3.20;;;;;;;23.99;26.88;94061.72;5033328;27;20041;-57
2022/05/06 10:23:15;;;;;;;2.90;2.50;;;;;;;23.61;27.08;94059.59;5037743;28;20044;-56
2022/05/06 10:25:41;;;;;;;2.73;2.50;;;;;;;23.70;25.95;94044.59;5037830;28;20060;-56
2022/05/06 10:34:18;;;;;;;4.45;2.88;;;;;;;23.51;28.98;94047.78;5026871;28;20590;-58
2022/05/06 10:36:44;;;;;;;2.47;2.28;;;;;;;23.34;26.84;94052.53;5031999;28;20028;-57
2022/05/06 10:39:29;;;;;;;2.88;2.13;;;;;;;23.09;28.50;94051.72;5035853;28;20560;-56
2022/05/06 10:42:16;;;;;;;4.88;2.72;;;;;;;22.68;28.87;94048.66;5026159;28;20053;-57
2022/05/06 10:44:51;;;;;;;4.93;2.67;;;;;;;22.50;30.47;94056.72;5025303;28;20539;-57
2022/05/06 10:47:18;;;;;;;3.15;2.65;;;;;;;22.44;28.84;94052.81;5038741;28;20554;-57
2022/05/06 10:49:46;;;;;;;2.60;2.40;;;;;;;22.71;29.25;94050.25;5045859;28;20085;-57
2022/05/06 10:52:22;;;;;;;2.65;2.45;;;;;;;22.73;27.77;94038.34;5046260;28;20025;-57
2022/05/06 10:54:49;;;;;;;4.53;2.30;;;;;;;23.18;29.36;94048.75;5046442;28;20116;-58
2022/05/06 10:57:16;;;;;;;2.88;1.90;;;;;;;23.40;26.63;94032.41;5046125;28;20029;-58
2022/05/06 11:00:03;;;;;;;3.20;2.20;;;;;;;23.40;26.03;94037.28;5045432;28;20036;-57
2022/05/06 11:02:36;;;;;;;2.42;2.22;;;;;;;22.93;26.54;94022.66;5046641;28;20056;-58
2022/05/06 11:05:05;;;;;;;4.68;2.58;;;;;;;23.56;27.07;94024.84;5046038;28;20044;-57
2022/05/06 11:07:31;;;;;;;4.00;2.40;;;;;;;23.09;26.27;94032.75;5046220;28;20402;-56
2022/05/06 11:09:57;;;;;;;3.85;2.75;;;;;;;22.75;27.52;94030.03;5045188;28;20040;-56
2022/05/06 11:12:38;;;;;;;6.80;3.05;;;;;;;22.31;28.45;94026.03;5041837;28;20033;-57
2022/05/06 11:15:06;;;;;;;2.65;2.42;;;;;;;22.41;27.80;94017.47;5038128;28;20053;-56
2022/05/06 11:17:33;;;;;;;4.22;2.75;;;;;;;22.86;28.90;94006.75;5033920;28;20037;-55
2022/05/06 11:20:04;;;;;;;3.08;2.33;;;;;;;23.05;26.46;94007.16;5039083;28;20044;-57
2022/05/06 11:22:33;;;;;;;4.50;2.58;;;;;;;23.05;27.69;93989.53;5043720;28;20729;-58
2022/05/06 11:24:59;;;;;;;3.17;2.28;;;;;;;23.21;29.49;93993.25;5043870;28;20033;-57
2022/05/06 11:27:24;;;;;;;7.28;2.40;;;;;;;23.07;28.98;94000.91;5045553;28;20111;-57
2022/05/06 11:29:51;;;;;;;5.32;2.47;;;;;;;23.03;28.45;93995.78;5045314;28;20108;-57
2022/05/06 11:32:17;;;;;;;2.50;2.30;;;;;;;23.07;26.85;93993.19;5039508;28;20093;-57
2022/05/06 11:34:57;;;;;;;6.38;2.42;;;;;;;23.31;29.01;93994.56;5042449;28;20037;-57
2022/05/06 11:37:28;;;;;;;2.17;1.98;;;;;;;22.81;27.07;94007.84;5029067;28;20422;-57
2022/05/06 11:40:39;;;;;;;2.78;2.30;;;;;;;22.45;27.26;93998.00;5028656;28;20040;-58
2022/05/06 11:42:40;;;;;;;6.60;2.75;;;;;;;22.16;28.39;94006.09;5018177;28;20091;-58
2022/05/06 11:47:51;;;;;;;4.75;3.03;;;;;;;22.36;30.19;93988.38;5025398;28;20065;-58
2022/05/06 11:50:17;;;;;;;3.17;2.50;;;;;;;22.50;29.20;93992.00;5025272;28;20471;-57
2022/05/06 11:52:46;;;;;;;17.33;3.58;;;;;;;22.33;28.25;93994.47;5024015;28;20029;-57
2022/05/06 11:55:15;;;;;;;6.35;2.80;;;;;;;21.76;29.71;93991.06;5029620;28;20068;-57
2022/05/06 11:57:40;;;;;;;;;;;;;;;21.70;30.39;93978.72;5024543;28;20075;-56
2022/05/06 12:00:07;;;;;;;5.65;3.10;;;;;;;21.30;30.21;93976.94;5023790;28;19913;-51
2022/05/06 12:02:34;;;;;;;6.32;3.00;;;;;;;21.68;29.73;93975.75;5023951;28;20040;-55
2022/05/06 12:04:59;;;;;;;4.53;3.03;;;;;;;21.75;29.49;93977.59;5024247;28;20136;-56
2022/05/06 12:08:01;;;;;;;6.65;3.00;;;;;;;21.83;29.84;93986.53;5025063;28;20545;-57
2022/05/06 12:10:34;;;;;;;3.10;2.80;;;;;;;21.53;30.11;93982.59;5065022;28;20035;-56
2022/05/06 12:13:00;;;;;;;3.33;3.00;;;;;;;21.53;31.14;93985.41;5030710;28;20050;-55
2022/05/06 12:15:33;;;;;;;3.97;2.42;;;;;;;21.22;31.04;93975.69;5024810;28;20072;-57